Time;durP1;ratioP1;P1;durP2;ratioP2;P2;SDS_P1;SDS_P2;PMS_P1;PMS_P2;Temp;Humidity;BMP_temperature;BMP_pressure;BME280_temperature;BME280_humidity;BME280_pressure;Samples;Min_cycle;Max_cycle;Signal;HPM_P1;HPM_P2
2022/06/20 00:02:11;;;;;;;;;;;;;;;22.86;44.45;100120.94;4962126;28;98029;-66
2022/06/20 00:05:04;;;;;;;;;;;;;;;22.80;44.66;100133.38;4964429;28;98639;-62
2022/06/20 00:07:57;;;;;;;;;;;;;;;22.74;44.70;100154.03;4952746;28;98398;-66
2022/06/20 00:10:50;;;;;;;;;;;;;;;22.67;44.82;100159.34;4973741;28;97814;-60
2022/06/20 00:13:53;;;;;;;;;;;;;;;22.61;45.08;100178.06;4964483;28;98158;-66
2022/06/20 00:16:48;;;;;;;;;;;;;;;22.52;45.40;100186.50;4962023;28;98320;-66
2022/06/20 00:19:42;;;;;;;;;;;;;;;22.44;45.56;100201.19;4952565;28;98121;-61
2022/06/20 00:22:35;;;;;;;;;;;;;;;22.38;45.84;100197.09;4941478;28;97998;-60
2022/06/20 00:25:30;;;;;;;;;;;;;;;22.37;45.67;100201.00;4942622;28;97759;-60
2022/06/20 00:28:23;;;;;;;;;;;;;;;22.34;45.53;100185.22;4940664;28;98319;-60
2022/06/20 00:31:26;;;;;;;;;;;;;;;22.36;45.61;100179.38;4960811;28;98469;-60
2022/06/20 00:34:19;;;;;;;;;;;;;;;22.35;45.52;100167.59;4942245;28;97874;-60
2022/06/20 00:37:12;;;;;;;;;;;;;;;22.36;45.54;100162.91;4943204;28;97920;-61
2022/06/20 00:40:05;;;;;;;;;;;;;;;22.39;45.68;100164.94;4947333;28;98301;-61
2022/06/20 00:42:58;;;;;;;;;;;;;;;22.37;45.51;100143.34;4939767;28;99968;-66
2022/06/20 00:45:52;;;;;;;;;;;;;;;22.36;45.59;100125.28;4941348;28;98327;-61
2022/06/20 00:49:19;;;;;;;;;;;;;;;22.36;45.74;100106.06;4954702;28;98128;-66
2022/06/20 00:52:42;;;;;;;;;;;;;;;22.34;45.64;100091.09;4943220;28;98265;-60
2022/06/20 00:55:54;;;;;;;;;;;;;;;22.25;45.80;100064.63;4964801;28;98434;-60
2022/06/20 00:59:17;;;;;;;;;;;;;;;22.20;45.84;100056.66;4950904;28;100448;-67
2022/06/20 01:02:10;;;;;;;;;;;;;;;22.12;46.03;100043.09;4943322;28;98305;-66
2022/06/20 01:05:24;;;;;;;;;;;;;;;22.03;46.35;100046.00;4956490;28;98321;-61
2022/06/20 01:08:45;;;;;;;;;;;;;;;21.94;46.44;100040.72;4946228;28;99810;-61
2022/06/20 01:11:52;;;;;;;;;;;;;;;21.86;46.68;100006.03;4922841;28;98098;-66
2022/06/20 01:14:54;;;;;;;;;;;;;;;21.75;47.12;100000.25;4924393;28;97917;-60
2022/06/20 01:17:57;;;;;;;;;;;;;;;21.66;47.03;99998.84;4941530;28;98346;-60
2022/06/20 01:21:11;;;;;;;;;;;;;;;21.61;47.07;99997.16;4968666;28;98545;-61
2022/06/20 01:24:40;;;;;;;;;;;;;;;21.55;47.48;100015.03;4941267;28;98253;-66
2022/06/20 01:27:56;;;;;;;;;;;;;;;21.48;47.55;100001.91;4936027;28;98162;-67
2022/06/20 01:30:50;;;;;;;;;;;;;;;21.46;47.51;99995.22;4944125;28;98247;-61
2022/06/20 01:33:43;;;;;;;;;;;;;;;21.43;47.49;99996.69;4942178;28;98363;-66
2022/06/20 01:39:39;;;;;;;;;;;;;;;21.41;47.50;100015.44;4945723;28;99017;-60
2022/06/20 01:42:32;;;;;;;;;;;;;;;21.42;47.52;100011.56;4953624;28;99773;-66
2022/06/20 01:49:12;;;;;;;;;;;;;;;21.45;47.65;100001.81;4866240;28;99448;-61
2022/06/20 01:52:16;;;;;;;;;;;;;;;21.46;47.61;100001.47;4878150;28;97974;-61
2022/06/20 01:55:43;;;;;;;;;;;;;;;21.48;47.77;100006.59;4931793;28;98498;-66
2022/06/20 01:58:45;;;;;;;;;;;;;;;21.45;47.90;100030.03;4937644;28;98549;-66
2022/06/20 02:01:37;;;;;;;;;;;;;;;21.47;47.80;100046.94;4920240;28;98409;-60
2022/06/20 02:04:32;;;;;;;;;;;;;;;21.52;47.97;100063.13;4923533;28;97652;-66
2022/06/20 02:07:25;;;;;;;;;;;;;;;21.56;48.11;100063.22;4931583;28;98240;-61
2022/06/20 02:10:18;;;;;;;;;;;;;;;21.58;47.98;100069.16;4951171;28;98366;-66
2022/06/20 02:13:13;;;;;;;;;;;;;;;21.61;48.10;100103.28;4942980;28;97726;-60
2022/06/20 02:16:07;;;;;;;;;;;;;;;21.60;48.31;100107.19;4955314;28;97996;-66
2022/06/20 02:19:00;;;;;;;;;;;;;;;21.61;48.39;100059.41;4960898;28;98292;-66
2022/06/20 02:21:53;;;;;;;;;;;;;;;21.58;48.55;100087.56;4941610;28;98489;-61
2022/06/20 02:24:48;;;;;;;;;;;;;;;21.53;48.55;100072.13;4943414;28;97871;-66
2022/06/20 02:27:58;;;;;;;;;;;;;;;21.51;48.40;100047.03;4948568;28;98111;-66
2022/06/20 02:31:03;;;;;;;;;;;;;;;21.46;48.62;100072.75;4945869;28;98752;-67
2022/06/20 02:33:55;;;;;;;;;;;;;;;21.43;48.41;100057.00;4942497;28;98405;-66
2022/06/20 02:36:48;;;;;;;;;;;;;;;21.43;48.41;100053.47;4943291;28;97924;-65
2022/06/20 02:39:41;;;;;;;;;;;;;;;21.41;48.56;100072.19;4958231;28;97989;-66
2022/06/20 02:43:05;;;;;;;;;;;;;;;21.39;48.50;100069.81;4962900;28;98572;-61
2022/06/20 02:45:57;;;;;;;;;;;;;;;21.37;48.42;100052.13;4962600;28;98140;-61
2022/06/20 02:48:50;;;;;;;;;;;;;;;21.36;48.54;100056.81;4963013;28;98206;-60
2022/06/20 02:51:47;;;;;;;;;;;;;;;21.36;48.51;100048.56;4936478;28;98102;-60
2022/06/20 02:54:41;;;;;;;;;;;;;;;21.35;48.43;100040.72;4923011;28;98674;-66
2022/06/20 02:57:43;;;;;;;;;;;;;;;21.31;48.31;100046.06;4943149;28;98649;-61
2022/06/20 03:00:42;;;;;;;;;;;;;;;21.29;48.33;100038.19;4944047;28;98416;-66
2022/06/20 03:03:37;;;;;;;;;;;;;;;21.28;48.77;100016.63;4942027;28;98325;-65
2022/06/20 03:06:31;;;;;;;;;;;;;;;21.17;48.94;100021.78;4922769;28;98564;-60
2022/06/20 03:09:24;;;;;;;;;;;;;;;21.09;49.11;100066.56;4931036;28;98414;-60
2022/06/20 03:12:17;;;;;;;;;;;;;;;21.03;49.58;100087.97;4957672;28;98117;-66
2022/06/20 03:15:10;;;;;;;;;;;;;;;20.96;49.73;100078.72;4975415;27;97762;-66
2022/06/20 03:18:03;;;;;;;;;;;;;;;20.92;49.97;100097.78;4960485;28;98945;-66
2022/06/20 03:20:57;;;;;;;;;;;;;;;20.88;49.71;100101.56;4952848;28;99101;-66
2022/06/20 03:23:49;;;;;;;;;;;;;;;20.84;49.75;100091.28;4956397;28;97978;-60
2022/06/20 03:26:51;;;;;;;;;;;;;;;20.80;49.74;100098.59;4942976;28;98177;-66
2022/06/20 03:29:54;;;;;;;;;;;;;;;20.78;50.09;100102.81;4942269;28;98398;-66
2022/06/20 03:32:46;;;;;;;;;;;;;;;20.74;49.99;100118.34;4960542;28;99316;-66
2022/06/20 03:35:39;;;;;;;;;;;;;;;20.69;50.28;100108.44;4959880;28;100227;-67
2022/06/20 03:38:32;;;;;;;;;;;;;;;20.64;50.63;100105.13;4962008;28;97888;-60
2022/06/20 03:41:35;;;;;;;;;;;;;;;20.61;50.63;100092.94;4956971;28;98889;-66
2022/06/20 03:44:49;;;;;;;;;;;;;;;20.57;50.68;100067.38;4944295;28;98490;-60
2022/06/20 03:48:08;;;;;;;;;;;;;;;20.53;50.74;100050.84;4942074;28;99338;-60
2022/06/20 03:51:22;;;;;;;;;;;;;;;20.56;50.45;100049.38;4927207;28;97963;-60
2022/06/20 03:54:24;;;;;;;;;;;;;;;20.64;50.50;100061.34;4963327;28;98521;-66
2022/06/20 03:57:20;;;;;;;;;;;;;;;20.68;49.98;100057.56;4953059;28;98580;-60
2022/06/20 04:00:13;;;;;;;;;;;;;;;20.72;50.13;100042.03;4959794;28;98222;-60
2022/06/20 04:03:17;;;;;;;;;;;;;;;20.75;50.08;100027.66;4941418;28;98126;-66
2022/06/20 04:06:36;;;;;;;;;;;;;;;20.78;50.29;100013.25;4959128;28;98429;-66
2022/06/20 04:12:54;;;;;;;;;;;;;;;20.81;50.18;99996.13;4941377;28;97694;-60
2022/06/20 04:16:04;;;;;;;;;;;;;;;20.84;50.15;99997.38;4951569;28;98171;-66
2022/06/20 04:19:28;;;;;;;;;;;;;;;20.82;50.27;99989.50;4940161;28;98235;-66
2022/06/20 04:22:32;;;;;;;;;;;;;;;20.81;50.18;99976.16;4940695;28;98571;-66
2022/06/20 04:25:41;;;;;;;;;;;;;;;20.81;50.18;99976.97;4964581;28;97900;-66
2022/06/20 04:28:52;;;;;;;;;;;;;;;20.84;50.20;99979.00;4960807;28;98020;-60
2022/06/20 04:31:55;;;;;;;;;;;;;;;20.81;50.01;99984.38;4960254;28;98283;-66
2022/06/20 04:35:15;;;;;;;;;;;;;;;20.83;50.05;99982.91;4949542;28;100484;-66
2022/06/20 04:38:34;;;;;;;;;;;;;;;20.90;49.85;99989.72;4939870;28;98226;-66
2022/06/20 04:41:39;;;;;;;;;;;;;;;20.95;49.72;99987.53;4940346;28;97875;-60
2022/06/20 04:44:56;;;;;;;;;;;;;;;21.01;49.71;99979.84;4952780;28;98349;-66
2022/06/20 04:48:35;;;;;;;;;;;;;;;21.08;49.68;99972.63;4938421;28;98905;-60
2022/06/20 04:51:29;;;;;;;;;;;;;;;21.14;49.44;99961.41;4927072;28;98519;-60
2022/06/20 04:54:21;;;;;;;;;;;;;;;21.16;49.30;99957.19;4940934;28;97837;-60
2022/06/20 04:57:14;;;;;;;;;;;;;;;21.29;49.21;99949.69;4940684;28;98511;-66
2022/06/20 05:00:09;;;;;;;;;;;;;;;21.33;49.07;99945.91;4939473;28;98558;-61
2022/06/20 05:03:01;;;;;;;;;;;;;;;21.36;49.14;99943.63;4940456;28;97854;-60
2022/06/20 05:05:56;;;;;;;;;;;;;;;21.36;49.14;99954.59;4954665;28;99634;-60
2022/06/20 05:08:59;;;;;;;;;;;;;;;21.31;49.41;99939.97;4960542;28;98209;-60
2022/06/20 05:11:53;;;;;;;;;;;;;;;21.23;49.42;99924.50;4960023;28;98078;-67
2022/06/20 05:14:55;;;;;;;;;;;;;;;21.25;49.45;99919.44;4963297;28;97919;-66
2022/06/20 05:17:48;;;;;;;;;;;;;;;21.37;49.44;99912.31;4939947;28;97832;-60
2022/06/20 05:21:01;;;;;;;;;;;;;;;21.53;49.05;99897.47;4930234;28;98264;-61
2022/06/20 05:24:14;;;;;;;;;;;;;;;21.80;48.76;99887.53;4927441;28;98882;-66
2022/06/20 05:27:08;;;;;;;;;;;;;;;22.14;48.48;99881.66;4960105;28;98127;-66
2022/06/20 05:30:00;;;;;;;;;;;;;;;22.47;48.14;99865.47;4957382;28;98019;-66
2022/06/20 05:33:43;;;;;;;;;;;;;;;22.65;48.18;99882.31;4959846;28;98633;-66
2022/06/20 05:37:20;;;;;;;;;;;;;;;22.79;48.55;99898.28;4898839;28;98186;-59
2022/06/20 05:40:25;;;;;;;;;;;;;;;22.81;49.25;99922.66;4866925;28;98368;-63
2022/06/20 05:43:29;;;;;;;;;;;;;;;22.72;49.49;99926.41;4923956;28;98230;-59
2022/06/20 05:46:33;;;;;;;;;;;;;;;22.62;49.45;99940.72;4940004;28;98256;-62
2022/06/20 05:49:30;;;;;;;;;;;;;;;22.93;49.45;99937.06;4940304;28;98820;-59
2022/06/20 05:52:24;;;;;;;;;;;;;;;22.87;49.77;99932.19;4938815;28;97855;-62
2022/06/20 05:55:18;;;;;;;;;;;;;;;22.98;49.93;99925.75;4949132;28;98026;-59
2022/06/20 05:58:11;;;;;;;;;;;;;;;23.09;49.75;99905.94;4950655;28;98794;-61
2022/06/20 06:01:04;;;;;;;;;;;;;;;23.13;49.28;99882.84;4958974;28;98254;-58
2022/06/20 06:04:24;;;;;;;;;;;;;;;23.12;49.29;99895.00;4957431;28;98286;-61
2022/06/20 06:07:19;;;;;;;;;;;;;;;23.11;49.58;99964.88;4919125;28;98268;-62
2022/06/20 06:10:40;;;;;;;;;;;;;;;22.93;49.94;100169.81;4924995;28;99749;-62
2022/06/20 06:13:43;;;;;;;;;;;;;;;22.50;50.16;100312.34;4919605;28;99119;-62
2022/06/20 06:16:56;;;;;;;;;;;;;;;22.10;50.23;100328.06;4924940;28;98037;-59
2022/06/20 06:20:10;;;;;;;;;;;;;;;21.55;50.82;100165.81;4938821;28;97799;-61
2022/06/20 06:23:04;;;;;;;;;;;;;;;21.15;51.64;100089.06;4943753;28;98388;-59
2022/06/20 06:26:06;;;;;;;;;;;;;;;20.81;51.80;100203.47;4942257;28;98744;-60
2022/06/20 06:28:59;;;;;;;;;;;;;;;20.47;52.81;100166.34;4940714;28;97865;-63
2022/06/20 06:31:56;;;;;;;;;;;;;;;;;;4946931;28;97916;-63
2022/06/20 06:34:48;;;;;;;;;;;;;;;20.48;53.09;100099.53;4944396;28;98074;-60
2022/06/20 06:37:42;;;;;;;;;;;;;;;20.61;52.79;100079.22;4937177;28;99051;-61
2022/06/20 06:40:50;;;;;;;;;;;;;;;20.95;52.24;100050.53;4955500;28;99297;-64
2022/06/20 06:44:06;;;;;;;;;;;;;;;21.33;51.95;100049.28;4957125;28;98180;-64
2022/06/20 06:47:18;;;;;;;;;;;;;;;21.93;51.15;100016.34;4964454;28;98242;-64
2022/06/20 06:50:12;;;;;;;;;;;;;;;22.57;50.32;100025.34;4939211;28;98492;-63
2022/06/20 06:53:10;;;;;;;;;;;;;;;22.71;49.97;100015.44;4949687;28;97980;-64
2022/06/20 06:56:03;;;;;;;;;;;;;;;22.86;49.46;100027.53;4954136;28;98310;-60
2022/06/20 06:59:40;;;;;;;;;;;;;;;23.18;48.81;100022.72;4960363;28;98257;-64
2022/06/20 07:02:34;;;;;;;;;;;;;;;23.15;49.04;100026.22;4952198;28;98487;-65
2022/06/20 07:05:44;;;;;;;;;;;;;;;23.24;48.65;100035.03;4961341;28;98243;-64
2022/06/20 07:08:47;;;;;;;;;;;;;;;23.52;47.98;100033.97;4937138;28;98375;-60
2022/06/20 07:11:40;;;;;;;;;;;;;;;23.51;48.05;100048.91;4941314;28;98871;-64
2022/06/20 07:14:36;;;;;;;;;;;;;;;23.34;48.27;100083.13;4942299;28;97924;-64
2022/06/20 07:17:50;;;;;;;;;;;;;;;22.98;48.69;100104.38;4944423;28;98028;-60
2022/06/20 07:20:46;;;;;;;;;;;;;;;22.58;49.28;100096.38;4933561;28;98041;-64
2022/06/20 07:23:39;;;;;;;;;;;;;;;22.36;48.98;100062.16;4939083;28;98892;-64
2022/06/20 07:26:32;;;;;;;;;;;;;;;22.61;48.51;100010.53;4941898;28;98266;-60
2022/06/20 07:29:25;;;;;;;;;;;;;;;23.72;46.73;100013.53;4921512;28;99673;-60
2022/06/20 07:32:19;;;;;;;;;;;;;;;24.34;46.25;100021.63;4940070;28;98214;-64
2022/06/20 07:35:14;;;;;;;;;;;;;;;24.84;45.41;99986.53;4950701;28;98378;-60
2022/06/20 07:38:28;;;;;;;;;;;;;;;25.41;44.57;99989.13;4942379;28;98322;-64
2022/06/20 07:41:30;;;;;;;;;;;;;;;25.48;44.27;100003.00;4945262;28;98581;-61
2022/06/20 07:44:26;;;;;;;;;;;;;;;25.43;44.55;99992.31;4942542;28;98770;-60
2022/06/20 07:47:39;;;;;;;;;;;;;;;26.01;43.08;100005.44;4942591;28;98526;-66
2022/06/20 07:50:42;;;;;;;;;;;;;;;26.47;42.25;99993.19;4958515;28;98708;-65
2022/06/20 07:53:37;;;;;;;;;;;;;;;26.54;42.05;99976.63;4942680;28;98021;-60
2022/06/20 07:57:07;;;;;;;;;;;;;;;26.54;42.19;99962.81;4944642;28;97757;-60
2022/06/20 08:00:20;;;;;;;;;;;;;;;26.98;41.83;99956.28;4942774;28;98680;-60
2022/06/20 08:03:34;;;;;;;;;;;;;;;28.43;39.69;99954.00;4940258;28;98492;-64
2022/06/20 08:06:36;;;;;;;;;;;;;;;28.54;39.59;99947.22;4957759;28;98423;-60
2022/06/20 08:09:49;;;;;;;;;;;;;;;28.12;40.11;99932.25;4960889;28;97956;-65
2022/06/20 08:12:42;;;;;;;;;;;;;;;28.81;38.71;99921.75;4960470;28;98437;-60
2022/06/20 08:15:37;;;;;;;;;;;;;;;28.80;38.17;99920.94;4963425;28;98755;-64
2022/06/20 08:18:29;;;;;;;;;;;;;;;28.05;38.74;99948.09;4965280;28;98114;-64
2022/06/20 08:21:42;;;;;;;;;;;;;;;27.49;39.43;99974.59;4940680;28;97900;-60
2022/06/20 08:24:46;;;;;;;;;;;;;;;26.53;41.13;100053.22;4932440;28;98629;-65
2022/06/20 08:27:41;;;;;;;;;;;;;;;25.78;41.92;100168.53;4954913;28;98378;-60
2022/06/20 08:30:45;;;;;;;;;;;;;;;25.08;42.89;100178.22;4968913;28;97843;-64
2022/06/20 08:33:41;;;;;;;;;;;;;;;24.60;43.61;100007.06;4962005;28;98206;-60
2022/06/20 08:36:34;;;;;;;;;;;;;;;24.21;44.96;100037.56;4943071;28;98163;-60
2022/06/20 08:39:37;;;;;;;;;;;;;;;23.97;45.82;99988.38;4943952;28;98309;-60
2022/06/20 08:43:03;;;;;;;;;;;;;;;24.97;44.86;99962.25;4947920;28;98100;-64
2022/06/20 08:46:29;;;;;;;;;;;;;;;27.27;42.52;99968.22;4972350;28;98154;-60
2022/06/20 08:49:48;;;;;;;;;;;;;;;29.61;39.53;99981.16;4948616;28;98549;-60
2022/06/20 08:53:14;;;;;;;;;;;;;;;31.53;37.31;99967.06;4956870;28;97821;-64
2022/06/20 08:56:37;;;;;;;;;;;;;;;33.33;34.96;99973.63;4952529;28;98167;-60
2022/06/20 09:00:20;;;;;;;;;;;;;;;32.86;35.71;99996.94;4945787;28;97924;-60
2022/06/20 09:03:45;;;;;;;;;;;;;;;32.12;35.52;99990.78;4958889;28;119672;-65
2022/06/20 09:06:58;;;;;;;;;;;;;;;31.96;35.29;99985.91;4937413;28;99848;-61
2022/06/20 09:10:01;;;;;;;;;;;;;;;33.15;33.81;100016.66;4922554;28;97936;-60
2022/06/20 09:13:28;;;;;;;;;;;;;;;32.23;35.22;100022.03;4960492;28;98165;-60
2022/06/20 09:16:30;;;;;;;;;;;;;;;30.55;36.79;100049.38;4959907;28;98485;-60
2022/06/20 09:20:00;;;;;;;;;;;;;;;29.26;38.17;100044.00;4948269;28;98674;-64
2022/06/20 09:23:02;;;;;;;;;;;;;;;27.98;39.03;100031.19;4940304;28;98555;-60
2022/06/20 09:26:13;;;;;;;;;;;;;;;27.03;40.25;100025.81;4939071;28;98254;-64
2022/06/20 09:29:16;;;;;;;;;;;;;;;26.28;41.14;100041.16;4939839;28;99092;-64
2022/06/20 09:32:39;;;;;;;;;;;;;;;25.67;42.38;100037.88;4941013;28;97881;-60
2022/06/20 09:35:41;;;;;;;;;;;;;;;24.91;43.53;100054.69;4939819;28;97996;-61
2022/06/20 09:39:04;;;;;;;;;;;;;;;24.51;44.09;100056.13;4940010;28;97865;-60
2022/06/20 09:41:57;;;;;;;;;;;;;;;24.21;44.64;100054.06;4939158;28;98492;-64
2022/06/20 09:45:16;;;;;;;;;;;;;;;24.07;44.58;100058.56;4950849;28;98272;-61
2022/06/20 09:48:10;;;;;;;;;;;;;;;23.84;45.38;100073.09;4957692;28;98257;-65
2022/06/20 09:51:20;;;;;;;;;;;;;;;23.61;45.74;100069.50;4959789;28;97958;-61
2022/06/20 09:54:42;;;;;;;;;;;;;;;23.36;46.13;100080.03;4943118;28;98766;-65
2022/06/20 09:57:52;;;;;;;;;;;;;;;23.08;46.45;100097.53;4942749;28;98333;-60
2022/06/20 10:01:03;;;;;;;;;;;;;;;22.84;46.85;100098.56;4921352;28;97960;-61
2022/06/20 10:04:08;;;;;;;;;;;;;;;22.65;47.33;100095.75;4933686;28;98011;-61
2022/06/20 10:07:40;;;;;;;;;;;;;;;22.49;47.52;100090.28;4940694;28;98370;-65
2022/06/20 10:10:34;;;;;;;;;;;;;;;22.42;47.51;100088.16;4937201;28;98504;-64
2022/06/20 10:13:45;;;;;;;;;;;;;;;22.34;47.84;100096.59;4932529;28;97895;-66
2022/06/20 10:16:37;;;;;;;;;;;;;;;22.30;47.76;100078.06;4939360;28;97972;-61
2022/06/20 10:20:08;;;;;;;;;;;;;;;22.49;47.52;100066.38;4952767;28;99017;-61
2022/06/20 10:23:25;;;;;;;;;;;;;;;22.48;47.68;100073.03;4948507;28;98628;-61
2022/06/20 10:26:37;;;;;;;;;;;;;;;22.41;47.73;100077.56;4939789;28;98187;-61
2022/06/20 10:29:57;;;;;;;;;;;;;;;22.30;47.83;100085.53;4955390;28;99267;-61
2022/06/20 10:33:16;;;;;;;;;;;;;;;22.11;48.30;100093.63;4962764;28;98284;-61
2022/06/20 10:36:43;;;;;;;;;;;;;;;21.94;48.71;100100.28;4953987;28;98380;-61
2022/06/20 10:39:53;;;;;;;;;;;;;;;21.83;49.00;100097.25;4956525;28;97788;-61
2022/06/20 10:42:45;;;;;;;;;;;;;;;21.69;49.18;100118.78;4952348;28;97827;-66
2022/06/20 10:46:15;;;;;;;;;;;;;;;21.55;49.59;100124.69;4931932;28;99028;-66
2022/06/20 10:49:35;;;;;;;;;;;;;;;21.33;49.82;100121.31;4939529;28;98451;-65
2022/06/20 10:52:54;;;;;;;;;;;;;;;21.17;50.12;100125.91;4942938;28;98260;-65
2022/06/20 10:56:24;;;;;;;;;;;;;;;21.00;50.70;100112.50;4943117;28;97938;-61
2022/06/20 10:59:37;;;;;;;;;;;;;;;20.81;51.03;100107.63;4952429;28;98488;-65
2022/06/20 11:02:56;;;;;;;;;;;;;;;20.70;51.08;100110.03;4958866;28;98224;-61
2022/06/20 11:06:00;;;;;;;;;;;;;;;20.70;50.85;100096.31;4978455;28;98149;-65
2022/06/20 11:09:04;;;;;;;;;;;;;;;20.88;50.65;100105.09;4955864;28;98344;-61
2022/06/20 11:11:56;;;;;;;;;;;;;;;20.96;50.62;100117.88;4958433;28;98511;-60
2022/06/20 11:14:59;;;;;;;;;;;;;;;20.93;50.92;100125.97;4939816;28;97934;-65
2022/06/20 11:18:02;;;;;;;;;;;;;;;20.90;50.78;100123.91;4944817;28;97877;-65
2022/06/20 11:21:15;;;;;;;;;;;;;;;20.72;51.15;100157.03;4933188;28;97869;-65
2022/06/20 11:24:17;;;;;;;;;;;;;;;20.54;51.17;100189.31;4924055;28;98115;-61
2022/06/20 11:28:02;;;;;;;;;;;;;;;20.43;51.01;100209.22;4938168;28;98244;-64
2022/06/20 11:30:55;;;;;;;;;;;;;;;20.34;51.38;100193.69;4915327;28;98124;-65
2022/06/20 11:34:14;;;;;;;;;;;;;;;20.34;51.21;100184.69;4952337;28;98416;-61
2022/06/20 11:37:27;;;;;;;;;;;;;;;20.33;51.29;100192.09;4955591;28;98117;-65
2022/06/20 11:40:29;;;;;;;;;;;;;;;20.29;51.63;100206.81;4945132;28;98765;-66
2022/06/20 11:43:31;;;;;;;;;;;;;;;20.25;51.75;100203.94;4944098;28;97923;-65
2022/06/20 11:46:33;;;;;;;;;;;;;;;20.21;51.74;100222.19;4960735;28;98189;-61
2022/06/20 11:49:43;;;;;;;;;;;;;;;20.11;52.11;100220.66;4951230;28;98874;-65
2022/06/20 11:53:02;;;;;;;;;;;;;;;20.04;52.15;100214.13;4961262;28;99872;-61
2022/06/20 11:56:35;;;;;;;;;;;;;;;19.98;52.34;100213.56;4960872;28;97958;-65
2022/06/20 12:00:09;;;;;;;;;;;;;;;19.84;52.60;100226.69;4957605;28;98325;-66
2022/06/20 12:03:45;;;;;;;;;;;;;;;19.70;53.43;100235.19;4948075;28;98382;-63
2022/06/20 12:07:04;;;;;;;;;;;;;;;19.61;53.35;100243.47;4951761;28;98616;-63
2022/06/20 12:10:00;;;;;;;;;;;;;;;19.49;54.04;100256.22;4961101;28;97851;-60
2022/06/20 12:13:15;;;;;;;;;;;;;;;19.43;54.06;100266.56;4954894;28;97979;-60
2022/06/20 12:16:49;;;;;;;;;;;;;;;19.36;54.33;100261.59;4934953;28;99015;-61
2022/06/20 12:26:32;;;;;;;;;;;;;;;19.07;55.38;100273.34;4940256;28;98424;-66
2022/06/20 12:29:37;;;;;;;;;;;;;;;19.08;55.65;100283.13;4937509;28;98199;-65
2022/06/20 12:32:31;;;;;;;;;;;;;;;18.97;55.48;100287.34;4962058;28;98301;-60
2022/06/20 12:36:05;;;;;;;;;;;;;;;18.87;55.83;100296.72;4930148;28;98515;-60
2022/06/20 12:39:09;;;;;;;;;;;;;;;18.79;55.60;100299.47;4940683;28;97852;-61
2022/06/20 12:42:04;;;;;;;;;;;;;;;18.75;55.67;100302.06;4962858;28;98018;-64
2022/06/20 12:45:17;;;;;;;;;;;;;;;18.73;55.49;100315.22;4961491;28;99297;-61
2022/06/20 12:48:48;;;;;;;;;;;;;;;18.72;55.51;100319.09;4961309;28;97972;-60
2022/06/20 12:51:53;;;;;;;;;;;;;;;18.73;55.72;100322.63;4969505;28;98508;-60
2022/06/20 12:55:20;;;;;;;;;;;;;;;18.72;55.08;100329.22;4955487;28;98717;-65
2022/06/20 12:58:22;;;;;;;;;;;;;;;18.71;55.48;100333.88;4912071;28;98550;-64
2022/06/20 13:01:31;;;;;;;;;;;;;;;18.71;55.30;100333.88;4957632;28;98028;-60
2022/06/20 13:04:44;;;;;;;;;;;;;;;18.71;55.38;100336.59;4940742;28;97969;-66
2022/06/20 13:08:24;;;;;;;;;;;;;;;18.71;55.57;100347.53;4954471;28;98276;-64
2022/06/20 13:11:37;;;;;;;;;;;;;;;18.71;55.49;100346.72;4912039;28;98218;-65
2022/06/20 13:14:46;;;;;;;;;;;;;;;18.72;55.83;100337.41;4961149;28;97940;-66
2022/06/20 13:18:22;;;;;;;;;;;;;;;18.74;55.76;100341.38;4960735;28;97790;-61
2022/06/20 13:21:42;;;;;;;;;;;;;;;18.77;56.08;100340.75;4949576;28;98296;-61
2022/06/20 13:24:44;;;;;;;;;;;;;;;18.79;55.99;100343.16;4920626;28;98494;-65
2022/06/20 13:28:13;;;;;;;;;;;;;;;18.82;56.07;100337.03;4920577;28;98091;-61
2022/06/20 13:31:25;;;;;;;;;;;;;;;18.84;56.45;100340.25;4917970;28;98208;-60
2022/06/20 13:34:54;;;;;;;;;;;;;;;18.84;56.27;100338.31;4949130;28;98527;-66
2022/06/20 13:38:03;;;;;;;;;;;;;;;18.79;56.65;100346.69;4936424;28;99129;-65
2022/06/20 13:40:58;;;;;;;;;;;;;;;18.71;56.81;100344.78;4939542;28;98221;-61
2022/06/20 13:44:25;;;;;;;;;;;;;;;18.68;56.87;100345.41;4933727;28;97915;-66
2022/06/20 13:48:02;;;;;;;;;;;;;;;18.72;56.96;100343.66;4920567;28;98703;-66
2022/06/20 13:51:04;;;;;;;;;;;;;;;18.70;57.08;100354.09;4972913;28;98800;-65
2022/06/20 13:54:08;;;;;;;;;;;;;;;18.70;57.07;100359.53;4958014;28;99532;-61
2022/06/20 13:57:03;;;;;;;;;;;;;;;18.65;57.27;100354.22;4945849;28;98704;-63
2022/06/20 14:00:27;;;;;;;;;;;;;;;18.61;57.35;100365.00;4919282;28;100803;-66
2022/06/20 14:03:38;;;;;;;;;;;;;;;18.63;57.11;100373.69;4960096;28;99472;-65
2022/06/20 14:07:18;;;;;;;;;;;;;;;18.68;57.44;100374.63;4961111;28;99363;-65
2022/06/20 14:10:11;;;;;;;;;;;;;;;18.76;57.13;100371.13;4900411;28;98257;-61
2022/06/20 14:13:06;;;;;;;;;;;;;;;18.86;57.04;100363.38;4947452;28;98313;-65
2022/06/20 14:15:58;;;;;;;;;;;;;;;18.91;57.12;100365.13;4955373;28;98549;-66
2022/06/20 14:18:51;;;;;;;;;;;;;;;18.87;57.25;100367.72;4942681;28;97764;-64
2022/06/20 14:22:06;;;;;;;;;;;;;;;18.84;57.41;100368.34;4944512;28;98264;-61
2022/06/20 14:24:59;;;;;;;;;;;;;;;18.84;57.43;100345.72;4942539;28;98388;-65
2022/06/20 14:28:02;;;;;;;;;;;;;;;18.93;57.25;100341.03;4941035;28;98683;-65
2022/06/20 14:30:58;;;;;;;;;;;;;;;18.96;57.17;100339.56;4940171;28;97891;-61
2022/06/20 14:34:10;;;;;;;;;;;;;;;19.04;57.07;100325.88;4961729;28;97876;-61
2022/06/20 14:37:29;;;;;;;;;;;;;;;19.16;56.73;100297.88;4972160;28;98922;-65
2022/06/20 14:40:24;;;;;;;;;;;;;;;19.32;56.39;100268.06;4976897;28;98360;-61
2022/06/20 14:43:49;;;;;;;;;;;;;;;19.36;56.22;100288.13;4945408;28;98322;-66
2022/06/20 14:47:04;;;;;;;;;;;;;;;19.27;56.48;100323.69;4938742;28;98107;-66
2022/06/20 14:50:34;;;;;;;;;;;;;;;19.22;56.88;100312.16;4946780;28;98146;-61
2022/06/20 14:53:48;;;;;;;;;;;;;;;19.12;56.96;100267.69;4949425;28;98197;-65
2022/06/20 14:56:41;;;;;;;;;;;;;;;19.04;57.03;100284.13;4938863;28;98262;-64
2022/06/20 14:59:37;;;;;;;;;;;;;;;18.92;57.29;100327.69;4940481;28;98097;-66
2022/06/20 15:03:14;;;;;;;;;;;;;;;18.80;57.52;100342.84;4954513;28;98359;-64
2022/06/20 15:06:16;;;;;;;;;;;;;;;18.68;57.74;100355.53;4934825;28;98073;-65
2022/06/20 15:09:45;;;;;;;;;;;;;;;18.59;58.05;100344.63;4940102;28;98712;-65
2022/06/20 15:13:01;;;;;;;;;;;;;;;18.54;57.60;100315.53;4930839;28;99173;-65
2022/06/20 15:16:03;;;;;;;;;;;;;;;18.64;57.49;100279.72;4921526;28;98231;-65
2022/06/20 15:19:40;;;;;;;;;;;;;;;18.66;57.53;100303.97;4920800;28;98411;-61
2022/06/20 15:22:34;;;;;;;;;;;;;;;18.53;57.50;100291.31;4924386;28;97927;-64
2022/06/20 15:25:49;;;;;;;;;;;;;;;18.45;57.62;100283.97;4917916;28;97930;-61
2022/06/20 15:29:00;;;;;;;;;;;;;;;18.41;57.38;100256.50;4922568;28;98232;-65
2022/06/20 15:32:05;;;;;;;;;;;;;;;18.42;57.30;100262.78;4948584;28;98230;-65
2022/06/20 15:34:57;;;;;;;;;;;;;;;18.39;57.36;100286.03;4939578;28;97911;-66
2022/06/20 15:37:50;;;;;;;;;;;;;;;18.36;57.44;100306.59;4939613;28;98192;-61
2022/06/20 15:41:01;;;;;;;;;;;;;;;18.34;57.35;100324.41;4959432;28;98758;-61
2022/06/20 15:44:14;;;;;;;;;;;;;;;18.27;57.26;100332.28;4969604;28;99019;-61
2022/06/20 15:47:16;;;;;;;;;;;;;;;18.17;57.09;100319.78;4962751;28;98130;-65
2022/06/20 15:50:29;;;;;;;;;;;;;;;18.13;57.01;100330.53;4956810;28;97813;-65
2022/06/20 15:53:31;;;;;;;;;;;;;;;18.19;56.91;100328.44;4955870;28;98435;-66
2022/06/20 15:56:50;;;;;;;;;;;;;;;18.20;56.66;100340.97;4941657;28;98398;-61
2022/06/20 16:03:30;;;;;;;;;;;;;;;18.15;56.56;100322.81;4932474;28;99430;-61
2022/06/20 16:06:49;;;;;;;;;;;;;;;18.25;56.36;100318.16;4952819;28;97983;-65
2022/06/20 16:10:01;;;;;;;;;;;;;;;18.35;56.13;100321.38;4949960;28;98750;-65
2022/06/20 16:12:54;;;;;;;;;;;;;;;18.37;55.83;100323.78;4957154;28;98145;-61
2022/06/20 16:15:56;;;;;;;;;;;;;;;18.39;55.80;100321.50;4957487;28;97983;-65
2022/06/20 16:18:49;;;;;;;;;;;;;;;18.45;55.22;100294.88;4959135;28;98000;-61
2022/06/20 16:21:45;;;;;;;;;;;;;;;18.48;54.98;100314.13;4955973;28;98334;-61